sensor_id;sensor_type;location;lat;lon;timestamp;temperature;humidity
69054;DHT22;56125;52.242;4.756;2023-03-01T00:00:03;16.40;39.10
69054;DHT22;56125;52.242;4.756;2023-03-01T00:05:05;16.40;39.10
69054;DHT22;56125;52.242;4.756;2023-03-01T00:10:06;16.40;39.10
69054;DHT22;56125;52.242;4.756;2023-03-01T00:15:07;16.40;39.20
69054;DHT22;56125;52.242;4.756;2023-03-01T00:20:09;16.40;39.20
69054;DHT22;56125;52.242;4.756;2023-03-01T00:25:10;16.30;39.20
69054;DHT22;56125;52.242;4.756;2023-03-01T00:30:12;16.40;39.10
69054;DHT22;56125;52.242;4.756;2023-03-01T00:35:13;16.30;39.20
69054;DHT22;56125;52.242;4.756;2023-03-01T00:40:14;16.30;39.20
69054;DHT22;56125;52.242;4.756;2023-03-01T00:45:17;16.30;39.20
69054;DHT22;56125;52.242;4.756;2023-03-01T00:50:18;16.30;39.20
69054;DHT22;56125;52.242;4.756;2023-03-01T00:55:20;16.10;39.20
69054;DHT22;56125;52.242;4.756;2023-03-01T01:00:21;16.30;39.40
69054;DHT22;56125;52.242;4.756;2023-03-01T01:05:22;16.40;39.30
69054;DHT22;56125;52.242;4.756;2023-03-01T01:10:23;16.30;39.40
69054;DHT22;56125;52.242;4.756;2023-03-01T01:15:24;16.30;39.30
69054;DHT22;56125;52.242;4.756;2023-03-01T01:20:25;16.30;39.30
69054;DHT22;56125;52.242;4.756;2023-03-01T01:25:26;16.30;39.40
69054;DHT22;56125;52.242;4.756;2023-03-01T01:30:27;16.30;39.40
69054;DHT22;56125;52.242;4.756;2023-03-01T01:35:28;16.30;39.40
69054;DHT22;56125;52.242;4.756;2023-03-01T01:40:29;16.30;39.40
69054;DHT22;56125;52.242;4.756;2023-03-01T01:45:33;16.30;39.50
69054;DHT22;56125;52.242;4.756;2023-03-01T01:50:38;16.30;40.30
69054;DHT22;56125;52.242;4.756;2023-03-01T01:55:49;16.30;39.50
69054;DHT22;56125;52.242;4.756;2023-03-01T02:00:51;16.30;39.70
69054;DHT22;56125;52.242;4.756;2023-03-01T02:10:56;16.20;40.50
69054;DHT22;56125;52.242;4.756;2023-03-01T02:15:58;16.20;39.50
69054;DHT22;56125;52.242;4.756;2023-03-01T02:21:25;16.20;39.60
69054;DHT22;56125;52.242;4.756;2023-03-01T02:26:37;16.30;39.60
69054;DHT22;56125;52.242;4.756;2023-03-01T02:31:41;16.30;39.70
69054;DHT22;56125;52.242;4.756;2023-03-01T02:37:01;16.30;39.50
69054;DHT22;56125;52.242;4.756;2023-03-01T02:42:06;16.30;39.60
69054;DHT22;56125;52.242;4.756;2023-03-01T02:47:07;16.30;39.60
69054;DHT22;56125;52.242;4.756;2023-03-01T02:52:22;16.30;39.60
69054;DHT22;56125;52.242;4.756;2023-03-01T02:57:25;16.30;39.60
69054;DHT22;56125;52.242;4.756;2023-03-01T03:02:30;16.30;39.70
69054;DHT22;56125;52.242;4.756;2023-03-01T03:07:39;16.30;39.60
69054;DHT22;56125;52.242;4.756;2023-03-01T03:12:40;16.30;39.60
69054;DHT22;56125;52.242;4.756;2023-03-01T03:17:42;16.30;39.60
69054;DHT22;56125;52.242;4.756;2023-03-01T03:22:43;16.30;39.60
69054;DHT22;56125;52.242;4.756;2023-03-01T03:27:46;16.30;40.30
69054;DHT22;56125;52.242;4.756;2023-03-01T03:32:48;16.30;39.60
69054;DHT22;56125;52.242;4.756;2023-03-01T03:37:56;16.30;39.60
69054;DHT22;56125;52.242;4.756;2023-03-01T03:43:04;16.30;39.50
69054;DHT22;56125;52.242;4.756;2023-03-01T03:48:07;16.30;39.50
69054;DHT22;56125;52.242;4.756;2023-03-01T03:53:11;16.30;39.60
69054;DHT22;56125;52.242;4.756;2023-03-01T03:58:12;16.40;39.50
69054;DHT22;56125;52.242;4.756;2023-03-01T04:03:14;16.40;39.50
69054;DHT22;56125;52.242;4.756;2023-03-01T04:08:17;16.40;39.50
69054;DHT22;56125;52.242;4.756;2023-03-01T04:13:21;17.30;39.80
69054;DHT22;56125;52.242;4.756;2023-03-01T04:18:23;16.40;39.30
69054;DHT22;56125;52.242;4.756;2023-03-01T04:23:25;16.50;39.40
69054;DHT22;56125;52.242;4.756;2023-03-01T04:28:31;16.50;39.40
69054;DHT22;56125;52.242;4.756;2023-03-01T04:33:34;16.50;39.10
69054;DHT22;56125;52.242;4.756;2023-03-01T04:38:37;16.50;40.20
69054;DHT22;56125;52.242;4.756;2023-03-01T04:43:38;16.60;39.00
69054;DHT22;56125;52.242;4.756;2023-03-01T04:48:40;16.60;39.20
69054;DHT22;56125;52.242;4.756;2023-03-01T04:53:42;16.60;38.90
69054;DHT22;56125;52.242;4.756;2023-03-01T04:58:45;16.60;39.00
69054;DHT22;56125;52.242;4.756;2023-03-01T05:03:48;16.70;38.90
69054;DHT22;56125;52.242;4.756;2023-03-01T05:08:49;16.70;39.00
69054;DHT22;56125;52.242;4.756;2023-03-01T05:13:50;16.80;38.70
69054;DHT22;56125;52.242;4.756;2023-03-01T05:18:55;16.70;38.90
69054;DHT22;56125;52.242;4.756;2023-03-01T05:23:57;16.90;38.60
69054;DHT22;56125;52.242;4.756;2023-03-01T05:28:58;16.80;38.70
69054;DHT22;56125;52.242;4.756;2023-03-01T05:33:59;16.90;38.50
69054;DHT22;56125;52.242;4.756;2023-03-01T05:39:00;16.80;38.50
69054;DHT22;56125;52.242;4.756;2023-03-01T05:44:01;16.90;38.40
69054;DHT22;56125;52.242;4.756;2023-03-01T05:49:02;16.90;38.60
69054;DHT22;56125;52.242;4.756;2023-03-01T05:54:05;17.00;38.40
69054;DHT22;56125;52.242;4.756;2023-03-01T05:59:06;16.90;38.50
69054;DHT22;56125;52.242;4.756;2023-03-01T06:04:07;17.00;38.30
69054;DHT22;56125;52.242;4.756;2023-03-01T06:09:08;17.00;38.60
69054;DHT22;56125;52.242;4.756;2023-03-01T06:14:10;17.00;38.20
69054;DHT22;56125;52.242;4.756;2023-03-01T06:19:13;17.10;38.00
69054;DHT22;56125;52.242;4.756;2023-03-01T06:24:14;17.10;38.10
69054;DHT22;56125;52.242;4.756;2023-03-01T06:29:15;17.20;38.30
69054;DHT22;56125;52.242;4.756;2023-03-01T06:34:16;17.10;38.00
69054;DHT22;56125;52.242;4.756;2023-03-01T06:39:17;17.10;38.10
69054;DHT22;56125;52.242;4.756;2023-03-01T06:44:18;17.20;38.00
69054;DHT22;56125;52.242;4.756;2023-03-01T06:49:19;17.20;38.00
69054;DHT22;56125;52.242;4.756;2023-03-01T06:54:20;17.20;38.00
69054;DHT22;56125;52.242;4.756;2023-03-01T06:59:23;17.30;38.00
69054;DHT22;56125;52.242;4.756;2023-03-01T07:04:24;17.30;37.90
69054;DHT22;56125;52.242;4.756;2023-03-01T07:09:25;17.30;38.00
69054;DHT22;56125;52.242;4.756;2023-03-01T07:14:26;17.40;37.80
69054;DHT22;56125;52.242;4.756;2023-03-01T07:19:27;17.40;37.90
69054;DHT22;56125;52.242;4.756;2023-03-01T07:24:28;17.40;37.90
69054;DHT22;56125;52.242;4.756;2023-03-01T07:29:29;17.50;37.80
69054;DHT22;56125;52.242;4.756;2023-03-01T07:34:30;17.50;37.80
69054;DHT22;56125;52.242;4.756;2023-03-01T07:39:31;17.60;37.70
69054;DHT22;56125;52.242;4.756;2023-03-01T07:44:32;17.70;37.70
69054;DHT22;56125;52.242;4.756;2023-03-01T07:49:34;17.60;37.70
69054;DHT22;56125;52.242;4.756;2023-03-01T07:54:35;17.60;37.60
69054;DHT22;56125;52.242;4.756;2023-03-01T07:59:36;17.70;37.70
69054;DHT22;56125;52.242;4.756;2023-03-01T08:04:37;17.70;37.60
69054;DHT22;56125;52.242;4.756;2023-03-01T08:09:38;17.70;37.70
69054;DHT22;56125;52.242;4.756;2023-03-01T08:14:39;17.70;38.30
69054;DHT22;56125;52.242;4.756;2023-03-01T08:19:40;17.80;37.70
69054;DHT22;56125;52.242;4.756;2023-03-01T08:24:41;17.80;37.70
69054;DHT22;56125;52.242;4.756;2023-03-01T08:29:42;17.80;37.70
69054;DHT22;56125;52.242;4.756;2023-03-01T08:34:46;17.80;37.90
69054;DHT22;56125;52.242;4.756;2023-03-01T08:39:47;17.80;37.70
69054;DHT22;56125;52.242;4.756;2023-03-01T08:44:48;17.80;37.90
69054;DHT22;56125;52.242;4.756;2023-03-01T08:49:50;17.80;37.90
69054;DHT22;56125;52.242;4.756;2023-03-01T08:54:52;17.90;38.10
69054;DHT22;56125;52.242;4.756;2023-03-01T08:59:53;17.80;38.00
69054;DHT22;56125;52.242;4.756;2023-03-01T09:04:56;17.80;38.10
69054;DHT22;56125;52.242;4.756;2023-03-01T09:09:57;17.80;38.10
69054;DHT22;56125;52.242;4.756;2023-03-01T09:14:58;17.80;38.20
69054;DHT22;56125;52.242;4.756;2023-03-01T09:19:59;17.80;38.10
69054;DHT22;56125;52.242;4.756;2023-03-01T09:25:00;17.80;38.20
69054;DHT22;56125;52.242;4.756;2023-03-01T09:30:02;17.80;38.20
69054;DHT22;56125;52.242;4.756;2023-03-01T09:35:03;17.70;38.30
69054;DHT22;56125;52.242;4.756;2023-03-01T09:40:08;18.40;38.80
69054;DHT22;56125;52.242;4.756;2023-03-01T09:45:28;17.70;38.40
69054;DHT22;56125;52.242;4.756;2023-03-01T09:50:41;17.70;38.30
69054;DHT22;56125;52.242;4.756;2023-03-01T09:55:50;17.70;38.40
69054;DHT22;56125;52.242;4.756;2023-03-01T10:00:53;17.70;38.50
69054;DHT22;56125;52.242;4.756;2023-03-01T10:06:14;17.70;38.50
69054;DHT22;56125;52.242;4.756;2023-03-01T10:11:41;17.70;38.70
69054;DHT22;56125;52.242;4.756;2023-03-01T10:16:55;17.70;38.80
69054;DHT22;56125;52.242;4.756;2023-03-01T10:32:24;17.70;38.60
69054;DHT22;56125;52.242;4.756;2023-03-01T10:37:25;17.60;38.60
69054;DHT22;56125;52.242;4.756;2023-03-01T10:42:32;17.60;38.50
69054;DHT22;56125;52.242;4.756;2023-03-01T10:47:33;17.60;38.40
69054;DHT22;56125;52.242;4.756;2023-03-01T10:52:40;17.50;38.40
69054;DHT22;56125;52.242;4.756;2023-03-01T10:57:42;17.50;38.40
69054;DHT22;56125;52.242;4.756;2023-03-01T11:02:43;17.50;38.40
69054;DHT22;56125;52.242;4.756;2023-03-01T11:07:49;17.50;38.10
69054;DHT22;56125;52.242;4.756;2023-03-01T11:12:51;18.10;38.50
69054;DHT22;56125;52.242;4.756;2023-03-01T11:17:54;17.40;37.90
69054;DHT22;56125;52.242;4.756;2023-03-01T11:23:07;17.30;37.90
69054;DHT22;56125;52.242;4.756;2023-03-01T11:28:15;17.40;37.90
69054;DHT22;56125;52.242;4.756;2023-03-01T11:38:26;17.40;37.90
69054;DHT22;56125;52.242;4.756;2023-03-01T11:43:50;17.40;38.20
69054;DHT22;56125;52.242;4.756;2023-03-01T11:54:47;17.30;37.90
69054;DHT22;56125;52.242;4.756;2023-03-01T12:00:05;17.20;37.80
69054;DHT22;56125;52.242;4.756;2023-03-01T12:05:23;17.30;37.70
69054;DHT22;56125;52.242;4.756;2023-03-01T12:11:10;18.00;38.20
69054;DHT22;56125;52.242;4.756;2023-03-01T12:26:35;16.50;37.20
69054;DHT22;56125;52.242;4.756;2023-03-01T12:32:15;17.30;37.70
69054;DHT22;56125;52.242;4.756;2023-03-01T12:37:39;17.30;37.70
69054;DHT22;56125;52.242;4.756;2023-03-01T12:42:58;17.30;37.50
69054;DHT22;56125;52.242;4.756;2023-03-01T12:58:42;17.20;37.70
69054;DHT22;56125;52.242;4.756;2023-03-01T13:04:12;17.20;37.50
69054;DHT22;56125;52.242;4.756;2023-03-01T13:14:45;17.20;37.20
69054;DHT22;56125;52.242;4.756;2023-03-01T13:19:57;17.20;37.30
69054;DHT22;56125;52.242;4.756;2023-03-01T13:25:13;17.20;37.40
69054;DHT22;56125;52.242;4.756;2023-03-01T13:35:42;17.20;37.30
69054;DHT22;56125;52.242;4.756;2023-03-01T13:45:51;17.20;37.50
69054;DHT22;56125;52.242;4.756;2023-03-01T13:51:08;17.20;37.30
69054;DHT22;56125;52.242;4.756;2023-03-01T14:06:26;17.20;37.40
69054;DHT22;56125;52.242;4.756;2023-03-01T14:22:16;17.20;37.30
69054;DHT22;56125;52.242;4.756;2023-03-01T14:27:20;17.20;37.50
69054;DHT22;56125;52.242;4.756;2023-03-01T14:32:25;17.20;37.40
69054;DHT22;56125;52.242;4.756;2023-03-01T14:37:29;17.20;37.40
69054;DHT22;56125;52.242;4.756;2023-03-01T14:42:35;17.20;37.60
69054;DHT22;56125;52.242;4.756;2023-03-01T14:47:37;17.10;37.30
69054;DHT22;56125;52.242;4.756;2023-03-01T14:52:42;17.30;37.60
69054;DHT22;56125;52.242;4.756;2023-03-01T14:57:48;17.20;37.40
69054;DHT22;56125;52.242;4.756;2023-03-01T15:02:51;17.20;37.30
69054;DHT22;56125;52.242;4.756;2023-03-01T15:07:54;17.10;37.30
69054;DHT22;56125;52.242;4.756;2023-03-01T15:12:56;17.10;37.50
69054;DHT22;56125;52.242;4.756;2023-03-01T15:18:19;17.10;37.20
69054;DHT22;56125;52.242;4.756;2023-03-01T15:23:26;17.20;37.30
69054;DHT22;56125;52.242;4.756;2023-03-01T15:28:33;17.10;37.30
69054;DHT22;56125;52.242;4.756;2023-03-01T15:33:40;17.10;37.30
69054;DHT22;56125;52.242;4.756;2023-03-01T15:38:56;17.10;37.30
69054;DHT22;56125;52.242;4.756;2023-03-01T15:44:14;17.10;37.40
69054;DHT22;56125;52.242;4.756;2023-03-01T15:49:33;17.10;37.40
69054;DHT22;56125;52.242;4.756;2023-03-01T15:54:35;17.10;37.40
69054;DHT22;56125;52.242;4.756;2023-03-01T15:59:36;17.00;37.30
69054;DHT22;56125;52.242;4.756;2023-03-01T16:04:37;17.00;37.30
69054;DHT22;56125;52.242;4.756;2023-03-01T16:09:38;17.00;37.40
69054;DHT22;56125;52.242;4.756;2023-03-01T16:14:39;17.00;37.40
69054;DHT22;56125;52.242;4.756;2023-03-01T16:19:40;17.00;37.40
69054;DHT22;56125;52.242;4.756;2023-03-01T16:24:41;17.00;37.30
69054;DHT22;56125;52.242;4.756;2023-03-01T16:29:42;17.00;37.50
69054;DHT22;56125;52.242;4.756;2023-03-01T16:34:44;17.00;37.20
69054;DHT22;56125;52.242;4.756;2023-03-01T16:39:45;17.00;37.30
69054;DHT22;56125;52.242;4.756;2023-03-01T16:44:46;17.00;37.40
69054;DHT22;56125;52.242;4.756;2023-03-01T16:49:47;17.00;37.40
69054;DHT22;56125;52.242;4.756;2023-03-01T16:54:48;17.00;37.50
69054;DHT22;56125;52.242;4.756;2023-03-01T16:59:51;16.90;37.30
69054;DHT22;56125;52.242;4.756;2023-03-01T17:04:55;16.90;37.40
69054;DHT22;56125;52.242;4.756;2023-03-01T17:09:56;16.90;37.40
69054;DHT22;56125;52.242;4.756;2023-03-01T17:14:57;16.90;37.40
69054;DHT22;56125;52.242;4.756;2023-03-01T17:19:58;16.90;37.40
69054;DHT22;56125;52.242;4.756;2023-03-01T17:24:59;16.90;37.60
69054;DHT22;56125;52.242;4.756;2023-03-01T17:30:00;16.80;37.40
69054;DHT22;56125;52.242;4.756;2023-03-01T17:35:01;16.80;37.50
69054;DHT22;56125;52.242;4.756;2023-03-01T17:40:03;16.90;37.60
69054;DHT22;56125;52.242;4.756;2023-03-01T17:45:04;16.60;37.50
69054;DHT22;56125;52.242;4.756;2023-03-01T17:50:06;16.80;37.60
69054;DHT22;56125;52.242;4.756;2023-03-01T17:55:08;16.80;37.60
69054;DHT22;56125;52.242;4.756;2023-03-01T18:00:11;16.80;37.60
69054;DHT22;56125;52.242;4.756;2023-03-01T18:05:13;16.80;37.70
69054;DHT22;56125;52.242;4.756;2023-03-01T18:10:14;16.80;37.70
69054;DHT22;56125;52.242;4.756;2023-03-01T18:15:15;16.80;37.60
69054;DHT22;56125;52.242;4.756;2023-03-01T18:20:16;16.80;37.70
69054;DHT22;56125;52.242;4.756;2023-03-01T18:25:19;16.80;37.80
69054;DHT22;56125;52.242;4.756;2023-03-01T18:30:20;16.80;37.60
69054;DHT22;56125;52.242;4.756;2023-03-01T18:35:22;16.80;37.70
69054;DHT22;56125;52.242;4.756;2023-03-01T18:40:23;16.80;37.80
69054;DHT22;56125;52.242;4.756;2023-03-01T18:45:24;16.70;37.80
69054;DHT22;56125;52.242;4.756;2023-03-01T18:50:25;16.70;37.80
69054;DHT22;56125;52.242;4.756;2023-03-01T18:55:26;16.70;37.70
69054;DHT22;56125;52.242;4.756;2023-03-01T19:00:27;16.70;37.80
69054;DHT22;56125;52.242;4.756;2023-03-01T19:05:29;16.70;37.70
69054;DHT22;56125;52.242;4.756;2023-03-01T19:10:30;16.70;38.80
69054;DHT22;56125;52.242;4.756;2023-03-01T19:15:31;16.70;38.80
69054;DHT22;56125;52.242;4.756;2023-03-01T19:20:32;16.70;37.80
69054;DHT22;56125;52.242;4.756;2023-03-01T19:25:34;16.70;37.90
69054;DHT22;56125;52.242;4.756;2023-03-01T19:30:35;16.70;37.80
69054;DHT22;56125;52.242;4.756;2023-03-01T19:35:37;16.70;37.80
69054;DHT22;56125;52.242;4.756;2023-03-01T19:40:38;16.60;37.90
69054;DHT22;56125;52.242;4.756;2023-03-01T19:45:39;16.60;37.80
69054;DHT22;56125;52.242;4.756;2023-03-01T19:50:42;16.60;37.90
69054;DHT22;56125;52.242;4.756;2023-03-01T19:55:45;16.60;37.90
69054;DHT22;56125;52.242;4.756;2023-03-01T20:00:46;16.60;38.00
69054;DHT22;56125;52.242;4.756;2023-03-01T20:05:47;16.60;39.00
69054;DHT22;56125;52.242;4.756;2023-03-01T20:10:48;16.60;37.90
69054;DHT22;56125;52.242;4.756;2023-03-01T20:15:49;16.60;37.90
69054;DHT22;56125;52.242;4.756;2023-03-01T20:20:50;16.60;37.90
69054;DHT22;56125;52.242;4.756;2023-03-01T20:25:59;16.60;37.90
69054;DHT22;56125;52.242;4.756;2023-03-01T20:31:09;16.60;38.00
69054;DHT22;56125;52.242;4.756;2023-03-01T20:36:11;16.50;37.80
69054;DHT22;56125;52.242;4.756;2023-03-01T20:41:12;16.50;37.80
69054;DHT22;56125;52.242;4.756;2023-03-01T20:46:13;16.50;37.90
69054;DHT22;56125;52.242;4.756;2023-03-01T20:51:15;16.50;37.90
69054;DHT22;56125;52.242;4.756;2023-03-01T20:56:18;16.50;37.90
69054;DHT22;56125;52.242;4.756;2023-03-01T21:01:19;16.50;38.00
69054;DHT22;56125;52.242;4.756;2023-03-01T21:06:21;16.50;37.90
69054;DHT22;56125;52.242;4.756;2023-03-01T21:11:22;16.50;38.00
69054;DHT22;56125;52.242;4.756;2023-03-01T21:16:26;16.50;38.00
69054;DHT22;56125;52.242;4.756;2023-03-01T21:21:27;16.50;38.00
69054;DHT22;56125;52.242;4.756;2023-03-01T21:26:28;16.50;38.00
69054;DHT22;56125;52.242;4.756;2023-03-01T21:31:32;16.40;38.00
69054;DHT22;56125;52.242;4.756;2023-03-01T21:36:34;16.40;38.00
69054;DHT22;56125;52.242;4.756;2023-03-01T21:41:36;16.40;38.00
69054;DHT22;56125;52.242;4.756;2023-03-01T21:46:38;16.40;38.00
69054;DHT22;56125;52.242;4.756;2023-03-01T21:51:39;16.40;38.00
69054;DHT22;56125;52.242;4.756;2023-03-01T21:56:42;16.40;38.10
69054;DHT22;56125;52.242;4.756;2023-03-01T22:01:44;16.40;38.20
69054;DHT22;56125;52.242;4.756;2023-03-01T22:06:45;16.40;38.20
69054;DHT22;56125;52.242;4.756;2023-03-01T22:11:52;16.40;38.20
69054;DHT22;56125;52.242;4.756;2023-03-01T22:17:02;16.40;38.10
69054;DHT22;56125;52.242;4.756;2023-03-01T22:22:03;16.40;38.10
69054;DHT22;56125;52.242;4.756;2023-03-01T22:27:04;16.40;38.10
69054;DHT22;56125;52.242;4.756;2023-03-01T22:32:05;16.40;38.20
69054;DHT22;56125;52.242;4.756;2023-03-01T22:37:06;16.30;38.10
69054;DHT22;56125;52.242;4.756;2023-03-01T22:42:07;16.30;38.20
69054;DHT22;56125;52.242;4.756;2023-03-01T22:47:10;16.30;38.20
69054;DHT22;56125;52.242;4.756;2023-03-01T22:52:11;16.30;38.10
69054;DHT22;56125;52.242;4.756;2023-03-01T22:57:12;16.30;38.20
69054;DHT22;56125;52.242;4.756;2023-03-01T23:02:13;16.30;38.30
69054;DHT22;56125;52.242;4.756;2023-03-01T23:07:14;16.30;38.30
69054;DHT22;56125;52.242;4.756;2023-03-01T23:12:15;16.30;38.40
69054;DHT22;56125;52.242;4.756;2023-03-01T23:17:16;16.30;39.40
69054;DHT22;56125;52.242;4.756;2023-03-01T23:22:18;16.30;38.50
69054;DHT22;56125;52.242;4.756;2023-03-01T23:27:19;16.30;38.50
69054;DHT22;56125;52.242;4.756;2023-03-01T23:32:20;16.30;38.60
69054;DHT22;56125;52.242;4.756;2023-03-01T23:37:21;16.30;38.70
69054;DHT22;56125;52.242;4.756;2023-03-01T23:42:22;16.30;38.70
69054;DHT22;56125;52.242;4.756;2023-03-01T23:47:23;16.30;38.70
69054;DHT22;56125;52.242;4.756;2023-03-01T23:52:24;16.30;38.80
69054;DHT22;56125;52.242;4.756;2023-03-01T23:57:25;16.30;38.80
